KDRT

Del Rio International Airport

Del Rio, Texas, USA
METAR KDRT 110153Z AUTO 10004KT 10SM CLR 11/04 A3035 RMK AO2 SLP279 T01060039
Observed Flight Rules
Dec-11 @ 01:53 UTC (41 minutes ago) Visual Flight Rules
Wind Visibility Clouds
100° at 4 knots 10 miles
  • Clear skies
Temperatures Readings
Current 11°C / 52°F
Dewpoint 4°C / 39°F
Humidity 62%
Altimeter 30.35" Hg
Pressure 1027.9 hPa
Elevation 313
METAR KDRT 110153Z AUTO 10004KT 10SM CLR 11/04 A3035 RMK AO2 SLP279 T01060039
Observed Flight Rules
Dec-11 @ 01:53 UTC
(41 minutes ago)
VFR
Wind Visibility
100° at 4 knots 10 miles
Clouds
  • Clear skies
Temperature Dewpoint
11°C / 52°F 4°C / 39°F
Humidity Altimeter Pressure
62% 30.35" Hg 1027.9 hPa